Time;durP1;ratioP1;P1;durP2;ratioP2;P2;SDS_P1;SDS_P2;PMS_P1;PMS_P2;Temp;Humidity;BMP_temperature;BMP_pressure;BME280_temperature;BME280_humidity;BME280_pressure;Samples;Min_cycle;Max_cycle;Signal;HPM_P1;HPM_P2
2024/02/25 00:01:25;;;;;;;23.23;15.60;;;;;;;29.03;67.77;101138.56;5061448;28;65706;-32
2024/02/25 00:03:56;;;;;;;20.92;16.38;;;;;;;29.04;68.99;101134.88;5057282;28;69909;-31
2024/02/25 00:06:27;;;;;;;22.52;17.88;;;;;;;29.10;69.28;101139.47;5051007;28;66253;-35
2024/02/25 00:08:57;;;;;;;23.67;17.83;;;;;;;29.12;69.29;101148.22;5045025;28;69958;-32
2024/02/25 00:11:28;;;;;;;26.73;18.90;;;;;;;29.15;70.21;101147.81;5060072;28;66982;-32
2024/02/25 00:13:59;;;;;;;33.40;19.83;;;;;;;29.14;70.40;101146.13;5041171;28;69804;-32
2024/02/25 00:16:29;;;;;;;33.22;18.45;;;;;;;29.15;70.79;101147.81;5058442;28;65323;-33
2024/02/25 00:19:00;;;;;;;30.70;19.23;;;;;;;29.20;71.26;101148.03;5061347;28;69084;-32
2024/02/25 00:21:31;;;;;;;34.75;19.80;;;;;;;29.24;70.62;101149.28;5052418;28;65519;-30
2024/02/25 00:24:02;;;;;;;44.50;17.73;;;;;;;29.28;70.96;101150.56;5049781;28;69087;-31
2024/02/25 00:26:33;;;;;;;29.42;18.17;;;;;;;29.32;70.62;101148.28;5059543;28;65693;-30
2024/02/25 00:29:03;;;;;;;26.33;17.38;;;;;;;29.35;70.32;101155.97;5058355;28;70188;-30
2024/02/25 00:31:34;;;;;;;32.45;18.67;;;;;;;29.38;70.95;101151.00;5042356;28;66548;-30
2024/02/25 00:34:05;;;;;;;31.40;18.55;;;;;;;29.40;71.04;101151.63;5049625;28;69290;-30
2024/02/25 00:36:35;;;;;;;30.17;19.00;;;;;;;29.44;70.96;101154.75;5043494;28;66164;-30
2024/02/25 00:39:07;;;;;;;31.48;19.73;;;;;;;29.40;71.71;101148.94;5045028;28;70580;-29
2024/02/25 00:41:38;;;;;;;31.67;19.15;;;;;;;29.48;72.55;101163.31;5051956;28;65570;-30
2024/02/25 00:44:10;;;;;;;39.50;19.05;;;;;;;29.52;71.96;101164.53;5057711;28;69191;-30
2024/02/25 00:46:40;;;;;;;31.58;18.33;;;;;;;29.55;72.76;101162.25;5043176;28;66258;-28
2024/02/25 00:49:11;;;;;;;35.20;20.27;;;;;;;29.49;71.11;101154.16;5055431;28;70084;-30
2024/02/25 00:51:42;;;;;;;38.47;23.20;;;;;;;29.49;70.28;101164.97;5054142;28;67017;-29
2024/02/25 00:54:12;;;;;;;46.00;23.48;;;;;;;29.56;70.48;101179.31;5049306;28;70055;-30
2024/02/25 00:56:45;;;;;;;40.83;26.65;;;;;;;29.54;71.05;101176.81;5053872;28;66423;-30
2024/02/25 00:59:16;;;;;;;51.70;30.30;;;;;;;29.49;70.45;101182.00;5058509;28;70315;-29
2024/02/25 01:01:50;;;;;;;49.58;28.73;;;;;;;29.48;70.79;101180.34;5056627;28;66090;-30
2024/02/25 01:04:21;;;;;;;52.88;30.77;;;;;;;29.55;69.74;101185.75;5061875;28;70229;-30
2024/02/25 01:06:52;;;;;;;59.60;29.33;;;;;;;29.57;69.90;101181.00;5052065;28;66027;-29
2024/02/25 01:09:22;;;;;;;48.55;30.25;;;;;;;29.55;69.00;101191.16;5060080;28;70484;-30
2024/02/25 01:11:53;;;;;;;60.03;32.85;;;;;;;29.60;69.25;101199.50;5057964;28;65849;-29
2024/02/25 01:14:24;;;;;;;53.85;32.92;;;;;;;29.57;68.67;101200.75;5046496;28;68898;-29
2024/02/25 01:16:55;;;;;;;64.03;35.40;;;;;;;29.63;68.75;101204.53;5060721;28;67103;-30
2024/02/25 01:19:26;;;;;;;61.20;34.47;;;;;;;29.62;69.19;101194.72;5040761;28;69945;-29
2024/02/25 01:21:57;;;;;;;57.85;33.88;;;;;;;29.61;70.04;101204.72;5060283;28;65803;-31
2024/02/25 01:24:27;;;;;;;65.18;36.20;;;;;;;29.59;68.77;101198.66;5059781;28;70163;-30
2024/02/25 01:26:58;;;;;;;61.33;37.15;;;;;;;29.63;69.84;101207.22;5044706;28;66452;-30
2024/02/25 01:29:29;;;;;;;66.20;36.88;;;;;;;29.67;69.09;101211.22;5053387;28;70557;-29
2024/02/25 01:32:00;;;;;;;74.68;37.08;;;;;;;29.69;68.76;101217.22;5056977;28;65777;-30
2024/02/25 01:34:30;;;;;;;73.07;38.78;;;;;;;29.61;69.48;101210.13;5056672;28;70563;-30
2024/02/25 01:37:04;;;;;;;77.18;43.22;;;;;;;29.65;69.49;101207.88;5059548;28;65513;-31
2024/02/25 01:39:35;;;;;;;82.57;43.25;;;;;;;29.71;69.46;101209.75;5056812;28;70150;-30
2024/02/25 01:42:07;;;;;;;76.15;41.65;;;;;;;29.74;69.39;101211.22;5051406;28;66532;-29
2024/02/25 01:44:56;;;;;;;76.68;42.20;;;;;;;29.75;70.21;101220.97;5050109;28;70379;-29
2024/02/25 01:47:30;;;;;;;78.38;42.00;;;;;;;29.82;69.20;101228.06;5044544;28;66125;-30
2024/02/25 01:50:02;;;;;;;66.93;40.17;;;;;;;29.82;69.56;101230.78;5072209;28;69123;-29
2024/02/25 01:52:34;;;;;;;75.05;40.13;;;;;;;29.79;70.03;101219.53;5055753;28;65652;-29
2024/02/25 01:55:05;;;;;;;70.25;40.63;;;;;;;29.87;69.00;101226.63;5055587;28;70138;-30
2024/02/25 01:57:37;;;;;;;66.25;39.38;;;;;;;29.93;70.00;101232.06;5043453;28;65991;-29
2024/02/25 02:00:08;;;;;;;73.82;41.50;;;;;;;29.94;69.67;101233.72;5042784;28;69975;-28
2024/02/25 02:02:39;;;;;;;69.88;41.00;;;;;;;29.94;69.86;101230.16;5049809;28;67176;-30
2024/02/25 02:05:10;;;;;;;84.03;43.70;;;;;;;29.93;69.23;101231.22;5047957;28;70980;-30
2024/02/25 02:07:42;;;;;;;67.43;39.90;;;;;;;29.98;70.53;101228.75;5045544;27;66019;-28
2024/02/25 02:10:13;;;;;;;66.20;40.77;;;;;;;29.95;69.89;101227.28;5054397;28;71239;-31
2024/02/25 02:12:46;;;;;;;63.83;40.72;;;;;;;30.01;70.03;101225.63;5055314;28;66331;-30
2024/02/25 02:15:17;;;;;;;75.18;41.85;;;;;;;30.00;70.12;101221.22;5047108;28;70128;-30
2024/02/25 02:17:48;;;;;;;87.30;45.27;;;;;;;30.04;70.54;101231.44;5054286;28;66333;-30
2024/02/25 02:20:20;;;;;;;77.30;45.03;;;;;;;30.12;70.14;101230.41;5049354;28;69958;-30
2024/02/25 02:22:51;;;;;;;80.53;43.50;;;;;;;30.12;70.63;101233.13;5045775;28;65350;-30
2024/02/25 02:25:22;;;;;;;67.90;40.65;;;;;;;30.18;70.27;101229.59;5050776;28;70231;-29
2024/02/25 02:27:55;;;;;;;76.32;42.22;;;;;;;30.15;70.45;101227.28;5052424;28;66669;-29
2024/02/25 02:30:26;;;;;;;66.20;40.73;;;;;;;30.24;70.16;101238.78;5052280;28;69546;-31
2024/02/25 02:32:58;;;;;;;73.97;41.47;;;;;;;30.25;70.49;101229.59;5051462;28;65624;-30
2024/02/25 02:35:29;;;;;;;70.57;38.70;;;;;;;30.21;69.81;101212.94;5052535;28;69786;-30
2024/02/25 02:38:00;;;;;;;72.57;40.85;;;;;;;30.36;70.15;101228.16;5048030;28;66539;-31
2024/02/25 02:40:31;;;;;;;74.80;40.63;;;;;;;30.38;70.27;101218.78;5054076;28;69849;-30
2024/02/25 02:43:04;;;;;;;79.82;43.28;;;;;;;30.46;69.94;101232.09;5059671;28;65931;-30
2024/02/25 02:45:36;;;;;;;;;;;;;;;30.34;72.21;101227.53;5057215;28;70375;-29
2024/02/25 02:48:11;;;;;;;77.45;40.65;;;;;;;30.30;70.51;101188.41;5059975;27;66089;-31
2024/02/25 02:50:42;;;;;;;64.28;39.03;;;;;;;30.57;70.10;101219.81;5055665;28;70571;-30
2024/02/25 02:53:13;;;;;;;62.50;36.38;;;;;;;30.60;70.58;101222.09;5056037;28;66077;-31
2024/02/25 02:55:45;;;;;;;68.63;34.60;;;;;;;30.66;69.47;101215.84;5055393;28;69202;-31
2024/02/25 02:58:17;;;;;;;62.75;37.10;;;;;;;30.71;69.43;101218.75;5058801;28;66666;-31
2024/02/25 03:00:47;;;;;;;55.22;32.85;;;;;;;30.72;69.64;101214.16;5058722;28;69421;-31
2024/02/25 03:03:18;;;;;;;48.20;31.53;;;;;;;30.72;69.53;101215.00;5068770;28;66074;-33
2024/02/25 03:05:50;;;;;;;56.50;30.73;;;;;;;30.79;68.63;101208.75;5055593;28;69100;-32
2024/02/25 03:08:21;;;;;;;42.73;29.27;;;;;;;30.82;68.29;101213.78;5048368;28;66084;-29
2024/02/25 03:10:52;;;;;;;48.83;29.07;;;;;;;30.81;69.47;101217.50;5043829;28;69983;-30
2024/02/25 03:13:23;;;;;;;40.00;28.30;;;;;;;30.85;68.55;101197.09;5060274;28;65391;-30
2024/02/25 03:15:54;;;;;;;40.55;30.08;;;;;;;30.90;68.12;101197.28;5055149;28;69921;-31
2024/02/25 03:18:25;;;;;;;47.47;28.47;;;;;;;30.92;68.00;101195.19;5047380;28;66472;-31
2024/02/25 03:20:57;;;;;;;44.50;27.80;;;;;;;30.97;67.95;101189.97;5060613;28;69521;-30
2024/02/25 03:23:29;;;;;;;50.08;29.75;;;;;;;31.04;67.97;101190.78;5042990;28;66608;-30
2024/02/25 03:26:00;;;;;;;37.33;26.17;;;;;;;31.08;67.51;101191.16;5052138;28;69555;-31
2024/02/25 03:28:31;;;;;;;47.83;26.75;;;;;;;31.10;67.55;101195.34;5061313;28;65909;-34
2024/02/25 03:31:02;;;;;;;37.80;25.93;;;;;;;31.12;67.94;101185.13;5061271;28;70420;-35
2024/02/25 03:33:34;;;;;;;43.58;27.77;;;;;;;31.15;68.06;101179.28;5060625;28;66581;-34
2024/02/25 03:36:05;;;;;;;38.33;26.13;;;;;;;31.09;67.81;101177.44;5055633;28;69976;-32
2024/02/25 03:38:42;;;;;;;42.70;25.60;;;;;;;30.87;66.03;101148.94;5044403;28;65112;-36
2024/02/25 03:41:17;;;;;;;37.38;24.40;;;;;;;30.80;64.24;101145.44;5047711;28;70093;-37
2024/02/25 03:43:48;;;;;;;37.45;24.05;;;;;;;30.94;63.35;101174.13;5048516;28;66189;-35
2024/02/25 03:46:19;;;;;;;33.05;22.42;;;;;;;30.93;63.16;101180.59;5056133;28;70115;-33
2024/02/25 03:48:50;;;;;;;38.33;22.05;;;;;;;30.90;62.47;101170.19;5055853;27;66538;-33
2024/02/25 03:51:21;;;;;;;34.55;22.25;;;;;;;30.89;60.81;101160.38;5054740;28;69127;-34
2024/02/25 03:53:53;;;;;;;;;;;;;;;30.71;60.22;101170.00;5057427;28;66531;-35
2024/02/25 03:56:24;;;;;;;29.45;21.25;;;;;;;30.82;60.25;101165.03;5044016;28;69891;-35
2024/02/25 03:58:55;;;;;;;31.45;21.20;;;;;;;30.70;59.80;101162.94;5059901;28;64648;-31
2024/02/25 04:01:26;;;;;;;26.65;19.20;;;;;;;30.79;60.11;101160.00;5061405;28;70841;-35
2024/02/25 04:03:57;;;;;;;25.60;20.13;;;;;;;30.73;59.28;101142.72;5054501;28;66207;-35
2024/02/25 04:06:28;;;;;;;31.63;19.42;;;;;;;30.67;59.11;101146.25;5056900;28;71153;-35
2024/02/25 04:08:59;;;;;;;22.92;17.85;;;;;;;30.73;58.72;101138.13;5047935;28;67441;-33
2024/02/25 04:11:31;;;;;;;26.13;17.77;;;;;;;30.65;58.39;101132.94;5049046;28;70315;-35
2024/02/25 04:14:02;;;;;;;19.77;17.37;;;;;;;30.65;57.94;101132.13;5048479;28;65523;-36
2024/02/25 04:16:34;;;;;;;21.30;18.58;;;;;;;30.71;57.90;101126.69;5052843;28;70525;-34
2024/02/25 04:19:05;;;;;;;22.05;17.80;;;;;;;30.68;57.73;101121.69;5053991;28;66814;-34
2024/02/25 04:21:37;;;;;;;20.67;17.08;;;;;;;30.65;56.81;101111.28;5052782;28;70137;-33
2024/02/25 04:24:08;;;;;;;19.37;17.27;;;;;;;30.66;57.57;101102.13;5048075;28;66421;-34
2024/02/25 04:26:48;;;;;;;18.17;16.20;;;;;;;30.69;57.47;101096.25;5058733;28;69557;-33
2024/02/25 04:29:19;;;;;;;18.17;15.52;;;;;;;30.55;57.07;101070.28;5047611;28;65835;-31
2024/02/25 04:31:50;;;;;;;17.75;15.57;;;;;;;30.70;57.00;101086.25;5048889;28;70832;-30
2024/02/25 04:34:21;;;;;;;25.67;15.70;;;;;;;30.66;57.39;101083.16;5042093;28;66857;-31
2024/02/25 04:36:52;;;;;;;18.30;16.30;;;;;;;30.66;56.89;101083.16;5042272;28;70357;-30
2024/02/25 04:39:23;;;;;;;28.48;16.10;;;;;;;30.66;56.28;101068.78;5051766;28;66744;-30
2024/02/25 04:41:55;;;;;;;19.23;15.65;;;;;;;30.72;55.63;101070.63;5047063;28;69074;-30
2024/02/25 04:44:26;;;;;;;22.27;14.70;;;;;;;30.72;56.61;101074.16;5045956;28;65932;-34
2024/02/25 04:47:00;;;;;;;17.85;15.18;;;;;;;30.72;56.08;101067.94;5044279;28;71268;-32
2024/02/25 04:49:31;;;;;;;19.52;14.73;;;;;;;30.73;56.02;101059.59;5051000;28;66529;-34
2024/02/25 04:52:03;;;;;;;18.57;14.50;;;;;;;30.80;55.83;101053.34;5048634;28;69781;-35
2024/02/25 04:54:34;;;;;;;23.07;15.33;;;;;;;30.75;56.20;101050.44;5044297;28;65451;-34
2024/02/25 04:57:05;;;;;;;19.70;15.88;;;;;;;30.75;56.53;101045.84;5049486;28;70222;-34
2024/02/25 04:59:36;;;;;;;21.80;16.42;;;;;;;30.72;56.34;101041.69;5059174;28;65405;-35
2024/02/25 05:02:07;;;;;;;16.88;15.30;;;;;;;30.76;56.07;101043.94;5059246;28;70739;-34
2024/02/25 05:04:42;;;;;;;17.80;15.93;;;;;;;30.75;54.57;101034.16;5042057;28;66471;-35
2024/02/25 05:07:13;;;;;;;18.20;15.90;;;;;;;30.73;55.51;101027.09;5041405;28;70375;-36
2024/02/25 05:09:45;;;;;;;18.08;15.45;;;;;;;30.82;55.34;101024.19;5038783;28;66617;-34
2024/02/25 05:12:18;;;;;;;22.00;16.93;;;;;;;30.76;55.34;101027.69;5040032;28;69228;-35
2024/02/25 05:14:50;;;;;;;18.10;15.50;;;;;;;30.72;55.49;101020.00;5039836;28;66097;-34
2024/02/25 05:17:24;;;;;;;17.63;15.40;;;;;;;30.73;54.53;101004.63;5044126;28;70496;-35
2024/02/25 05:19:55;;;;;;;19.25;15.45;;;;;;;30.78;54.81;100998.53;5051530;28;66066;-34
2024/02/25 05:22:26;;;;;;;17.45;15.48;;;;;;;30.82;54.78;100987.09;5060079;28;70108;-34
2024/02/25 05:24:57;;;;;;;16.90;15.00;;;;;;;30.75;54.10;100980.84;5059363;28;67169;-33
2024/02/25 05:27:35;;;;;;;18.00;16.10;;;;;;;30.78;54.81;100979.56;5040921;28;70490;-33
2024/02/25 05:30:08;;;;;;;15.52;14.13;;;;;;;30.74;54.15;100960.22;5036703;28;65669;-33
2024/02/25 05:32:40;;;;;;;16.45;14.98;;;;;;;30.77;54.19;100958.97;5048174;28;69533;-35
2024/02/25 05:35:12;;;;;;;17.03;14.90;;;;;;;30.71;54.25;100964.22;5055839;28;66379;-35
2024/02/25 05:37:45;;;;;;;17.40;15.18;;;;;;;30.72;54.06;100957.72;5055447;28;70217;-35
2024/02/25 05:40:16;;;;;;;16.48;14.82;;;;;;;30.80;54.25;100961.28;5055540;28;67996;-35
2024/02/25 05:42:47;;;;;;;16.50;14.80;;;;;;;30.83;53.67;100947.28;5055694;28;70100;-35
2024/02/25 05:45:19;;;;;;;17.13;15.32;;;;;;;30.81;53.83;100943.97;5050480;28;66289;-34
2024/02/25 05:47:50;;;;;;;23.80;16.03;;;;;;;30.82;54.07;100932.09;5043207;28;69175;-33
2024/02/25 05:50:21;;;;;;;15.93;14.60;;;;;;;30.86;54.05;100927.91;5056910;28;66473;-33
2024/02/25 05:52:53;;;;;;;16.98;14.75;;;;;;;30.87;54.41;100926.84;5050019;28;69937;-35
2024/02/25 05:55:24;;;;;;;16.75;14.68;;;;;;;30.90;54.74;100926.41;5047987;28;66140;-35
2024/02/25 05:57:55;;;;;;;15.97;14.43;;;;;;;30.91;54.62;100919.94;5042681;28;70132;-35
2024/02/25 06:00:26;;;;;;;15.67;13.73;;;;;;;30.94;54.03;100914.09;5040962;28;66883;-33
2024/02/25 06:03:00;;;;;;;15.43;13.95;;;;;;;30.96;54.29;100916.59;5041104;28;70150;-33
2024/02/25 06:05:31;;;;;;;16.02;14.50;;;;;;;30.99;54.12;100903.41;5039071;28;65446;-36
2024/02/25 06:08:02;;;;;;;15.70;13.90;;;;;;;31.04;53.49;100891.94;5040958;28;68952;-35
2024/02/25 06:10:34;;;;;;;15.45;13.90;;;;;;;31.04;54.03;100886.53;5041213;28;65262;-35
2024/02/25 06:13:06;;;;;;;14.90;13.73;;;;;;;31.03;53.96;100884.84;5039780;28;69440;-34
2024/02/25 06:15:37;;;;;;;14.45;13.35;;;;;;;31.08;53.85;100890.44;5039057;28;66186;-34
2024/02/25 06:18:10;;;;;;;15.50;13.88;;;;;;;31.06;53.54;100890.63;5048192;28;70416;-34
2024/02/25 06:20:41;;;;;;;20.35;14.18;;;;;;;31.08;54.03;100893.13;5058940;28;66678;-31
2024/02/25 06:23:12;;;;;;;16.92;14.90;;;;;;;31.09;53.88;100886.66;5061458;28;70263;-31
2024/02/25 06:25:43;;;;;;;16.63;14.20;;;;;;;31.14;53.84;100887.66;5058513;28;66635;-29
2024/02/25 06:28:14;;;;;;;21.10;14.48;;;;;;;31.15;54.54;100885.78;5056725;28;70243;-31
2024/02/25 06:30:45;;;;;;;17.43;15.10;;;;;;;31.21;54.52;100873.22;5052181;28;66497;-32
2024/02/25 06:33:16;;;;;;;21.45;13.75;;;;;;;31.22;53.70;100873.00;5054234;28;71533;-31
2024/02/25 06:35:50;;;;;;;15.75;14.10;;;;;;;31.32;53.86;100865.19;5062983;28;66768;-30
2024/02/25 06:38:21;;;;;;;25.98;14.82;;;;;;;31.28;54.03;100860.44;5058612;28;69662;-31
2024/02/25 06:40:52;;;;;;;24.48;14.18;;;;;;;31.24;54.25;100859.25;5052104;28;65511;-30
2024/02/25 06:43:24;;;;;;;21.75;14.63;;;;;;;31.32;54.20;100864.38;5056432;28;69969;-34
2024/02/25 06:45:57;;;;;;;21.95;15.35;;;;;;;31.34;54.14;100864.94;5054617;28;65788;-29
2024/02/25 06:48:28;;;;;;;18.88;14.70;;;;;;;31.39;53.91;100854.31;5048077;28;70662;-29
2024/02/25 06:50:59;;;;;;;16.17;14.70;;;;;;;31.45;54.17;100850.69;5061874;28;66465;-31
2024/02/25 06:53:33;;;;;;;16.33;14.90;;;;;;;31.43;53.68;100841.97;5049674;28;68932;-34
2024/02/25 06:56:04;;;;;;;18.33;14.77;;;;;;;31.44;53.49;100840.91;5046839;28;66281;-32
2024/02/25 06:58:35;;;;;;;18.47;14.87;;;;;;;31.47;53.98;100843.16;5061335;28;70403;-31
2024/02/25 07:01:07;;;;;;;16.23;14.60;;;;;;;31.50;53.31;100842.72;5048387;28;66579;-35
2024/02/25 07:03:41;;;;;;;17.43;15.60;;;;;;;31.48;53.79;100844.84;5042139;28;68930;-34
2024/02/25 07:06:13;;;;;;;18.95;16.08;;;;;;;31.55;53.40;100847.47;5041694;28;65904;-33
2024/02/25 07:08:45;;;;;;;16.88;15.23;;;;;;;31.53;53.32;100827.88;5040133;28;70276;-29
2024/02/25 07:11:17;;;;;;;16.50;15.00;;;;;;;31.53;53.38;100828.69;5042929;28;66177;-31
2024/02/25 07:13:49;;;;;;;16.15;14.85;;;;;;;31.64;53.23;100837.97;5041684;28;70250;-32
2024/02/25 07:16:20;;;;;;;;;;;;;;;31.60;52.95;100836.78;5041823;28;66456;-32
2024/02/25 07:18:52;;;;;;;20.42;15.02;;;;;;;31.72;53.54;100834.94;5043494;28;70042;-31
2024/02/25 07:21:23;;;;;;;;;;;;;;;31.63;52.70;100835.50;5041933;28;66586;-33
2024/02/25 07:23:54;;;;;;;16.83;15.15;;;;;;;31.72;53.30;100834.94;5042746;28;70703;-30
2024/02/25 07:26:26;;;;;;;18.75;15.50;;;;;;;31.69;53.07;100829.97;5041091;28;66946;-30
2024/02/25 07:28:57;;;;;;;15.90;14.70;;;;;;;31.63;53.05;100819.22;5041848;28;70271;-30
2024/02/25 07:31:28;;;;;;;21.42;15.52;;;;;;;31.75;53.11;100806.56;5042784;28;66299;-32
2024/02/25 07:34:00;;;;;;;17.73;15.93;;;;;;;31.75;53.09;100817.41;5045601;28;70092;-31
2024/02/25 07:36:31;;;;;;;16.77;15.27;;;;;;;31.73;53.17;100804.09;5041156;28;65894;-30
2024/02/25 07:39:03;;;;;;;17.42;15.88;;;;;;;31.82;53.21;100793.75;5049550;28;70314;-31
2024/02/25 07:41:36;;;;;;;17.42;15.88;;;;;;;31.87;53.11;100809.31;5049501;28;66393;-31
2024/02/25 07:44:07;;;;;;;17.43;15.73;;;;;;;31.79;52.98;100794.19;5060787;28;69412;-31
2024/02/25 07:46:38;;;;;;;;;;;;;;;31.82;52.34;100793.75;5057518;28;65803;-30
2024/02/25 07:49:09;;;;;;;17.30;15.60;;;;;;;31.93;53.23;100787.56;5051608;28;69831;-30
2024/02/25 07:51:41;;;;;;;17.38;15.90;;;;;;;31.91;52.88;100784.25;5061452;28;65898;-29
2024/02/25 07:54:11;;;;;;;16.92;14.85;;;;;;;31.98;52.72;100779.56;5061369;28;70299;-32
2024/02/25 07:56:43;;;;;;;15.88;14.50;;;;;;;31.85;52.92;100771.59;5047701;28;65687;-34
2024/02/25 07:59:14;;;;;;;18.02;16.10;;;;;;;31.97;52.99;100786.03;5060479;28;70030;-32
2024/02/25 08:01:45;;;;;;;21.00;15.50;;;;;;;31.97;52.75;100761.63;5061189;28;66085;-29
2024/02/25 08:04:17;;;;;;;18.73;15.70;;;;;;;31.98;52.74;100763.31;5059359;28;70122;-31
2024/02/25 08:06:48;;;;;;;16.52;15.20;;;;;;;32.00;52.80;100776.63;5062107;28;65879;-30
2024/02/25 08:09:19;;;;;;;15.90;14.33;;;;;;;31.98;52.62;100785.00;5054415;28;70078;-30
2024/02/25 08:11:50;;;;;;;15.83;14.20;;;;;;;32.04;52.65;100772.41;5053598;28;66146;-30
2024/02/25 08:14:21;;;;;;;15.40;13.77;;;;;;;32.05;52.36;100780.28;5042609;28;69989;-29
2024/02/25 08:16:52;;;;;;;18.83;14.50;;;;;;;32.07;52.64;100765.66;5045898;28;65134;-29
2024/02/25 08:19:24;;;;;;;15.98;14.48;;;;;;;32.13;52.33;100778.31;5045495;28;69956;-31
2024/02/25 08:21:55;;;;;;;15.10;13.57;;;;;;;32.09;52.64;100771.69;5059790;28;66054;-30
2024/02/25 08:24:26;;;;;;;14.70;12.87;;;;;;;32.09;52.80;100779.81;5049429;28;70700;-30
2024/02/25 08:26:57;;;;;;;14.43;13.10;;;;;;;32.17;52.59;100777.59;5053271;28;66743;-30
2024/02/25 08:29:28;;;;;;;13.97;12.70;;;;;;;32.19;52.42;100785.53;5053075;28;69967;-31
2024/02/25 08:31:59;;;;;;;13.20;11.90;;;;;;;32.18;52.52;100789.28;5051364;28;66787;-29
2024/02/25 08:34:30;;;;;;;14.35;12.40;;;;;;;32.19;52.74;100786.34;5051583;28;71463;-31
2024/02/25 08:37:02;;;;;;;12.07;11.23;;;;;;;32.20;52.66;100792.59;5047373;28;66087;-33
2024/02/25 08:39:33;;;;;;;13.13;12.00;;;;;;;32.24;52.94;100799.25;5052435;28;69044;-29
2024/02/25 08:42:04;;;;;;;14.40;11.77;;;;;;;32.24;52.87;100789.22;5047842;28;67568;-30
2024/02/25 08:44:35;;;;;;;11.50;10.57;;;;;;;32.33;52.12;100797.84;5048678;28;69833;-30
2024/02/25 08:47:07;;;;;;;;;;;;;;;32.25;52.36;100800.88;5050699;28;66314;-28
2024/02/25 08:49:39;;;;;;;13.57;10.80;;;;;;;32.27;52.86;100790.63;5055811;28;69964;-30
2024/02/25 08:52:09;;;;;;;11.45;10.43;;;;;;;32.36;52.96;100797.38;5060542;28;66508;-30
2024/02/25 08:54:42;;;;;;;11.83;10.70;;;;;;;32.38;52.57;100795.25;5043473;28;71130;-30
2024/02/25 08:57:13;;;;;;;11.90;9.77;;;;;;;32.38;53.04;100795.25;5055261;28;66633;-33
2024/02/25 08:59:45;;;;;;;10.57;9.40;;;;;;;32.38;52.75;100797.16;5054072;28;70188;-30
2024/02/25 09:02:17;;;;;;;11.13;10.15;;;;;;;32.37;52.77;100799.00;5050607;28;65868;-28
2024/02/25 09:04:48;;;;;;;11.00;8.43;;;;;;;32.46;52.64;100802.28;5046867;28;69513;-30
2024/02/25 09:07:20;;;;;;;10.45;9.23;;;;;;;32.43;52.35;100803.53;5048765;27;66292;-31
2024/02/25 09:09:51;;;;;;;21.90;9.30;;;;;;;32.43;52.98;100802.69;5048609;28;70029;-30
2024/02/25 09:12:23;;;;;;;10.13;9.18;;;;;;;32.51;53.23;100807.00;5057427;28;65432;-30
2024/02/25 09:14:54;;;;;;;24.03;8.97;;;;;;;32.56;53.36;100807.13;5044438;28;69293;-30
2024/02/25 09:17:26;;;;;;;17.13;9.43;;;;;;;32.60;54.21;100813.75;5051160;28;66080;-31
2024/02/25 09:19:57;;;;;;;19.02;8.90;;;;;;;32.58;54.02;100805.84;5061040;28;69224;-32
2024/02/25 09:22:28;;;;;;;10.02;9.05;;;;;;;32.60;54.11;100814.59;5044760;28;65073;-30
2024/02/25 09:24:59;;;;;;;13.90;7.73;;;;;;;32.57;54.16;100819.63;5046438;28;70778;-30
2024/02/25 09:27:35;;;;;;;19.77;8.70;;;;;;;32.71;54.00;100826.53;5043312;28;66340;-30
2024/02/25 09:30:07;;;;;;;8.02;7.38;;;;;;;32.69;54.28;100817.78;5043925;28;70969;-30
2024/02/25 09:32:39;;;;;;;14.07;8.35;;;;;;;32.65;54.41;100811.13;5040872;28;66378;-30
2024/02/25 09:35:14;;;;;;;10.98;7.82;;;;;;;32.75;54.27;100816.84;5048689;28;69397;-31
2024/02/25 09:37:48;;;;;;;11.55;7.60;;;;;;;32.73;54.52;100816.22;5051894;28;66192;-30
2024/02/25 09:40:19;;;;;;;18.80;7.10;;;;;;;32.79;55.02;100818.03;5047068;28;70875;-30
2024/02/25 09:42:52;;;;;;;13.10;7.53;;;;;;;32.90;56.65;100819.06;5040126;28;66392;-29
2024/02/25 09:45:24;;;;;;;12.27;8.25;;;;;;;33.04;57.04;100819.69;5046413;28;69587;-29
2024/02/25 09:47:57;;;;;;;10.40;8.05;;;;;;;33.11;57.46;100825.84;5055328;28;65514;-31
2024/02/25 09:50:31;;;;;;;9.88;8.57;;;;;;;33.17;58.07;100821.38;5050315;28;69467;-30
2024/02/25 09:53:02;;;;;;;12.43;8.20;;;;;;;33.21;58.18;100826.09;5052393;28;65510;-30
2024/02/25 09:55:34;;;;;;;13.55;8.25;;;;;;;33.32;58.31;100832.56;5044490;28;69410;-29
2024/02/25 09:58:05;;;;;;;;;;;;;;;33.33;61.00;100829.63;5046317;28;66435;-30
2024/02/25 10:00:36;;;;;;;13.55;8.20;;;;;;;33.51;60.29;100835.97;5053748;28;70224;-30
2024/02/25 10:03:11;;;;;;;15.38;9.15;;;;;;;33.55;61.29;100839.91;5054271;28;66344;-30
2024/02/25 10:05:42;;;;;;;26.42;9.75;;;;;;;33.57;61.76;100837.75;5058288;28;70542;-30
2024/02/25 10:08:14;;;;;;;15.27;9.48;;;;;;;33.64;61.94;100845.81;5051205;28;65432;-30
2024/02/25 10:10:45;;;;;;;14.50;8.68;;;;;;;33.72;61.33;100838.09;5048604;28;70250;-29
2024/02/25 10:13:18;;;;;;;20.42;8.10;;;;;;;33.73;61.63;100839.72;5048072;28;65675;-31
2024/02/25 10:15:59;;;;;;;12.75;7.28;;;;;;;33.72;62.83;100835.38;5043594;28;69374;-30
2024/02/25 10:18:31;;;;;;;17.70;7.80;;;;;;;33.81;62.41;100844.78;5044634;28;65497;-30
2024/02/25 10:21:07;;;;;;;20.52;8.23;;;;;;;33.71;63.47;100836.44;5047269;28;70372;-29
2024/02/25 10:23:39;;;;;;;17.83;8.30;;;;;;;33.90;62.17;100847.13;5060399;27;67485;-31
2024/02/25 10:26:25;;;;;;;20.67;8.02;;;;;;;33.73;63.86;100834.28;5060459;28;69911;-31
2024/02/25 10:29:07;;;;;;;12.77;8.07;;;;;;;33.81;63.71;100852.13;5055179;28;66254;-31
2024/02/25 10:31:38;;;;;;;15.77;6.10;;;;;;;33.85;62.39;100844.31;5043817;28;69723;-31
2024/02/25 10:34:12;;;;;;;20.02;6.80;;;;;;;33.87;62.39;100853.88;5060044;28;65574;-31
2024/02/25 10:36:44;;;;;;;26.70;7.63;;;;;;;33.81;62.42;100847.50;5057466;28;69894;-31
2024/02/25 10:39:14;;;;;;;;;;;;;;;33.70;63.29;100867.41;5054424;28;66207;-32
2024/02/25 10:41:46;;;;;;;17.80;5.80;;;;;;;33.93;61.56;100868.41;5052494;28;70397;-30
2024/02/25 10:44:19;;;;;;;12.05;5.78;;;;;;;33.90;61.18;100874.34;5052292;28;66143;-32
2024/02/25 10:46:55;;;;;;;12.40;6.35;;;;;;;33.56;62.18;100838.84;5052272;28;70078;-32
2024/02/25 10:49:27;;;;;;;17.90;5.78;;;;;;;33.86;61.17;100867.75;5057993;28;65491;-30
2024/02/25 10:51:58;;;;;;;;;;;;;;;33.69;62.08;100876.66;5050679;28;70504;-30
2024/02/25 10:54:30;;;;;;;22.02;5.78;;;;;;;33.76;61.50;100880.06;5059304;28;66150;-30
2024/02/25 10:57:00;;;;;;;;;;;;;;;33.79;62.04;100876.88;5051482;28;70543;-30
2024/02/25 10:59:32;;;;;;;22.80;5.72;;;;;;;34.00;61.28;100882.72;5051456;28;66601;-31
2024/02/25 11:02:03;;;;;;;13.98;6.18;;;;;;;33.99;61.88;100886.50;5047744;28;70789;-30
2024/02/25 11:04:35;;;;;;;24.30;7.82;;;;;;;33.99;61.94;100886.50;5047040;28;66379;-31
2024/02/25 11:07:07;;;;;;;18.65;7.53;;;;;;;33.99;62.27;100881.91;5055766;28;69377;-31
2024/02/25 11:09:39;;;;;;;28.15;8.43;;;;;;;34.03;62.54;100888.50;5054815;28;65762;-30
2024/02/25 11:12:21;;;;;;;20.30;7.93;;;;;;;34.00;63.21;100893.63;5046710;28;70523;-31
2024/02/25 11:15:02;;;;;;;15.07;8.13;;;;;;;34.04;62.61;100889.31;5043130;28;65885;-32
2024/02/25 11:17:40;;;;;;;18.98;8.20;;;;;;;33.97;62.84;100888.66;5043424;28;70605;-31
2024/02/25 11:20:14;;;;;;;18.77;7.78;;;;;;;33.94;63.19;100883.69;5050141;28;66727;-31
2024/02/25 11:22:49;;;;;;;17.58;7.72;;;;;;;33.93;63.22;100890.19;5055930;28;68780;-32
2024/02/25 11:25:34;;;;;;;14.20;6.85;;;;;;;33.78;63.75;100883.38;5044617;28;66540;-31
2024/02/25 11:28:15;;;;;;;25.10;7.28;;;;;;;33.85;63.45;100901.44;5047504;28;69949;-30
2024/02/25 11:30:49;;;;;;;18.50;6.97;;;;;;;33.91;62.67;100905.94;5052559;28;66677;-33
2024/02/25 11:33:39;;;;;;;16.70;7.10;;;;;;;33.90;62.86;100909.72;5041393;28;70405;-31
2024/02/25 11:36:15;;;;;;;12.90;7.25;;;;;;;33.91;62.22;100905.94;5042716;28;66184;-29